sensor_id;sensor_type;location;lat;lon;timestamp;P1;durP1;ratioP1;P2;durP2;ratioP2
27804;SDS011;15183;51.350;11.102;2024-03-08T00:00:59;34.25;;;20.25;;
27804;SDS011;15183;51.350;11.102;2024-03-08T00:03:25;37.05;;;22.20;;
27804;SDS011;15183;51.350;11.102;2024-03-08T00:05:54;33.97;;;19.48;;
27804;SDS011;15183;51.350;11.102;2024-03-08T00:08:21;33.78;;;20.08;;
27804;SDS011;15183;51.350;11.102;2024-03-08T00:10:48;32.05;;;18.90;;
27804;SDS011;15183;51.350;11.102;2024-03-08T00:13:14;37.33;;;21.30;;
27804;SDS011;15183;51.350;11.102;2024-03-08T00:15:41;31.67;;;18.65;;
27804;SDS011;15183;51.350;11.102;2024-03-08T00:18:08;38.10;;;21.83;;
27804;SDS011;15183;51.350;11.102;2024-03-08T00:20:34;35.22;;;20.08;;
27804;SDS011;15183;51.350;11.102;2024-03-08T00:23:01;31.25;;;18.88;;
27804;SDS011;15183;51.350;11.102;2024-03-08T00:25:27;31.55;;;19.95;;
27804;SDS011;15183;51.350;11.102;2024-03-08T00:27:55;40.33;;;21.85;;
27804;SDS011;15183;51.350;11.102;2024-03-08T00:30:22;37.58;;;21.92;;
27804;SDS011;15183;51.350;11.102;2024-03-08T00:32:50;33.55;;;20.60;;
27804;SDS011;15183;51.350;11.102;2024-03-08T00:35:17;39.50;;;23.15;;
27804;SDS011;15183;51.350;11.102;2024-03-08T00:37:43;35.95;;;21.20;;
27804;SDS011;15183;51.350;11.102;2024-03-08T00:40:13;41.03;;;22.98;;
27804;SDS011;15183;51.350;11.102;2024-03-08T00:42:40;41.10;;;23.30;;
27804;SDS011;15183;51.350;11.102;2024-03-08T00:45:09;40.17;;;24.25;;
27804;SDS011;15183;51.350;11.102;2024-03-08T00:47:36;40.88;;;22.65;;
27804;SDS011;15183;51.350;11.102;2024-03-08T00:50:03;40.90;;;23.30;;
27804;SDS011;15183;51.350;11.102;2024-03-08T00:52:30;42.65;;;23.85;;
27804;SDS011;15183;51.350;11.102;2024-03-08T00:54:56;40.42;;;23.48;;
27804;SDS011;15183;51.350;11.102;2024-03-08T00:57:24;42.78;;;23.75;;
27804;SDS011;15183;51.350;11.102;2024-03-08T00:59:51;42.58;;;23.88;;
27804;SDS011;15183;51.350;11.102;2024-03-08T01:02:18;42.67;;;23.60;;
27804;SDS011;15183;51.350;11.102;2024-03-08T01:04:45;39.47;;;22.67;;
27804;SDS011;15183;51.350;11.102;2024-03-08T01:07:12;39.63;;;24.23;;
27804;SDS011;15183;51.350;11.102;2024-03-08T01:09:39;41.03;;;24.30;;
27804;SDS011;15183;51.350;11.102;2024-03-08T01:12:06;36.08;;;21.75;;
27804;SDS011;15183;51.350;11.102;2024-03-08T01:14:33;39.72;;;23.02;;
27804;SDS011;15183;51.350;11.102;2024-03-08T01:16:59;34.70;;;20.27;;
27804;SDS011;15183;51.350;11.102;2024-03-08T01:19:26;37.50;;;22.52;;
27804;SDS011;15183;51.350;11.102;2024-03-08T01:21:52;36.25;;;21.80;;
27804;SDS011;15183;51.350;11.102;2024-03-08T01:24:23;37.72;;;22.15;;
27804;SDS011;15183;51.350;11.102;2024-03-08T01:26:50;39.65;;;22.88;;
27804;SDS011;15183;51.350;11.102;2024-03-08T01:29:17;45.13;;;24.65;;
27804;SDS011;15183;51.350;11.102;2024-03-08T01:31:43;39.92;;;23.08;;
27804;SDS011;15183;51.350;11.102;2024-03-08T01:34:10;37.33;;;22.73;;
27804;SDS011;15183;51.350;11.102;2024-03-08T01:36:36;38.42;;;22.20;;
27804;SDS011;15183;51.350;11.102;2024-03-08T01:39:03;40.03;;;23.42;;
27804;SDS011;15183;51.350;11.102;2024-03-08T01:41:33;41.15;;;23.17;;
27804;SDS011;15183;51.350;11.102;2024-03-08T01:44:01;34.78;;;20.70;;
27804;SDS011;15183;51.350;11.102;2024-03-08T01:46:28;41.65;;;22.70;;
27804;SDS011;15183;51.350;11.102;2024-03-08T01:48:55;39.40;;;23.25;;
27804;SDS011;15183;51.350;11.102;2024-03-08T01:51:22;36.22;;;22.63;;
27804;SDS011;15183;51.350;11.102;2024-03-08T01:53:49;39.95;;;22.80;;
27804;SDS011;15183;51.350;11.102;2024-03-08T01:56:18;38.92;;;23.38;;
27804;SDS011;15183;51.350;11.102;2024-03-08T01:58:45;36.65;;;22.25;;
27804;SDS011;15183;51.350;11.102;2024-03-08T02:01:12;37.65;;;23.38;;
27804;SDS011;15183;51.350;11.102;2024-03-08T02:03:40;43.10;;;23.65;;
27804;SDS011;15183;51.350;11.102;2024-03-08T02:06:11;37.40;;;23.58;;
27804;SDS011;15183;51.350;11.102;2024-03-08T02:08:41;35.90;;;21.75;;
27804;SDS011;15183;51.350;11.102;2024-03-08T02:11:12;41.88;;;23.23;;
27804;SDS011;15183;51.350;11.102;2024-03-08T02:13:39;36.08;;;22.38;;
27804;SDS011;15183;51.350;11.102;2024-03-08T02:16:06;37.15;;;23.15;;
27804;SDS011;15183;51.350;11.102;2024-03-08T02:18:33;40.50;;;24.02;;
27804;SDS011;15183;51.350;11.102;2024-03-08T02:21:01;44.20;;;24.77;;
27804;SDS011;15183;51.350;11.102;2024-03-08T02:23:29;34.97;;;22.02;;
27804;SDS011;15183;51.350;11.102;2024-03-08T02:25:56;38.58;;;22.48;;
27804;SDS011;15183;51.350;11.102;2024-03-08T02:28:23;41.05;;;23.73;;
27804;SDS011;15183;51.350;11.102;2024-03-08T02:30:53;40.22;;;22.58;;
27804;SDS011;15183;51.350;11.102;2024-03-08T02:33:23;36.40;;;21.85;;
27804;SDS011;15183;51.350;11.102;2024-03-08T02:35:50;40.28;;;23.20;;
27804;SDS011;15183;51.350;11.102;2024-03-08T02:38:18;38.28;;;22.13;;
27804;SDS011;15183;51.350;11.102;2024-03-08T02:40:46;40.40;;;22.83;;
27804;SDS011;15183;51.350;11.102;2024-03-08T02:43:15;38.63;;;22.63;;
27804;SDS011;15183;51.350;11.102;2024-03-08T02:45:43;38.47;;;22.65;;
27804;SDS011;15183;51.350;11.102;2024-03-08T02:48:12;38.78;;;21.70;;
27804;SDS011;15183;51.350;11.102;2024-03-08T02:50:39;37.67;;;22.83;;
27804;SDS011;15183;51.350;11.102;2024-03-08T02:53:08;36.28;;;21.38;;
27804;SDS011;15183;51.350;11.102;2024-03-08T02:55:35;37.35;;;21.63;;
27804;SDS011;15183;51.350;11.102;2024-03-08T02:58:02;37.65;;;22.45;;
27804;SDS011;15183;51.350;11.102;2024-03-08T03:00:30;39.75;;;22.65;;
27804;SDS011;15183;51.350;11.102;2024-03-08T03:02:58;46.47;;;25.75;;
27804;SDS011;15183;51.350;11.102;2024-03-08T03:05:25;41.42;;;23.50;;
27804;SDS011;15183;51.350;11.102;2024-03-08T03:07:51;41.70;;;22.67;;
27804;SDS011;15183;51.350;11.102;2024-03-08T03:10:18;40.00;;;22.17;;
27804;SDS011;15183;51.350;11.102;2024-03-08T03:12:45;38.83;;;22.35;;
27804;SDS011;15183;51.350;11.102;2024-03-08T03:15:13;42.42;;;22.52;;
27804;SDS011;15183;51.350;11.102;2024-03-08T03:17:49;44.13;;;24.85;;
27804;SDS011;15183;51.350;11.102;2024-03-08T03:20:17;42.88;;;22.00;;
27804;SDS011;15183;51.350;11.102;2024-03-08T03:23:06;38.20;;;22.75;;
27804;SDS011;15183;51.350;11.102;2024-03-08T03:25:34;35.78;;;21.40;;
27804;SDS011;15183;51.350;11.102;2024-03-08T03:28:01;40.20;;;22.92;;
27804;SDS011;15183;51.350;11.102;2024-03-08T03:30:28;38.40;;;21.85;;
27804;SDS011;15183;51.350;11.102;2024-03-08T03:33:02;38.00;;;21.83;;
27804;SDS011;15183;51.350;11.102;2024-03-08T03:35:32;34.83;;;20.88;;
27804;SDS011;15183;51.350;11.102;2024-03-08T03:37:59;33.92;;;19.70;;
27804;SDS011;15183;51.350;11.102;2024-03-08T03:40:32;36.25;;;21.75;;
27804;SDS011;15183;51.350;11.102;2024-03-08T03:43:00;39.42;;;21.83;;
27804;SDS011;15183;51.350;11.102;2024-03-08T03:45:27;35.45;;;20.65;;
27804;SDS011;15183;51.350;11.102;2024-03-08T03:47:54;38.55;;;22.77;;
27804;SDS011;15183;51.350;11.102;2024-03-08T03:50:21;37.08;;;22.63;;
27804;SDS011;15183;51.350;11.102;2024-03-08T03:52:49;38.78;;;21.83;;
27804;SDS011;15183;51.350;11.102;2024-03-08T03:55:16;40.17;;;21.63;;
27804;SDS011;15183;51.350;11.102;2024-03-08T03:57:43;37.05;;;22.38;;
27804;SDS011;15183;51.350;11.102;2024-03-08T04:00:11;40.30;;;21.38;;
27804;SDS011;15183;51.350;11.102;2024-03-08T04:02:38;36.58;;;22.00;;
27804;SDS011;15183;51.350;11.102;2024-03-08T04:05:09;37.55;;;20.92;;
27804;SDS011;15183;51.350;11.102;2024-03-08T04:07:37;37.40;;;21.92;;
27804;SDS011;15183;51.350;11.102;2024-03-08T04:10:04;38.70;;;22.70;;
27804;SDS011;15183;51.350;11.102;2024-03-08T04:12:34;35.88;;;22.05;;
27804;SDS011;15183;51.350;11.102;2024-03-08T04:15:01;39.20;;;21.75;;
27804;SDS011;15183;51.350;11.102;2024-03-08T04:17:27;36.65;;;21.80;;
27804;SDS011;15183;51.350;11.102;2024-03-08T04:19:54;41.55;;;23.25;;
27804;SDS011;15183;51.350;11.102;2024-03-08T04:22:22;39.80;;;23.00;;
27804;SDS011;15183;51.350;11.102;2024-03-08T04:24:49;38.70;;;22.75;;
27804;SDS011;15183;51.350;11.102;2024-03-08T04:27:16;34.03;;;20.73;;
27804;SDS011;15183;51.350;11.102;2024-03-08T04:29:42;39.00;;;22.05;;
27804;SDS011;15183;51.350;11.102;2024-03-08T04:32:13;36.42;;;21.80;;
27804;SDS011;15183;51.350;11.102;2024-03-08T04:34:43;38.65;;;22.00;;
27804;SDS011;15183;51.350;11.102;2024-03-08T04:37:10;36.08;;;22.02;;
27804;SDS011;15183;51.350;11.102;2024-03-08T04:39:39;40.70;;;22.75;;
27804;SDS011;15183;51.350;11.102;2024-03-08T04:42:06;40.20;;;23.38;;
27804;SDS011;15183;51.350;11.102;2024-03-08T04:44:36;38.55;;;23.13;;
27804;SDS011;15183;51.350;11.102;2024-03-08T04:47:05;44.90;;;23.45;;
27804;SDS011;15183;51.350;11.102;2024-03-08T04:49:32;38.35;;;21.83;;
27804;SDS011;15183;51.350;11.102;2024-03-08T04:52:02;43.97;;;23.80;;
27804;SDS011;15183;51.350;11.102;2024-03-08T04:54:30;38.20;;;22.58;;
27804;SDS011;15183;51.350;11.102;2024-03-08T04:56:57;39.58;;;22.45;;
27804;SDS011;15183;51.350;11.102;2024-03-08T04:59:26;41.70;;;23.02;;
27804;SDS011;15183;51.350;11.102;2024-03-08T05:01:54;39.28;;;22.05;;
27804;SDS011;15183;51.350;11.102;2024-03-08T05:04:20;40.00;;;23.83;;
27804;SDS011;15183;51.350;11.102;2024-03-08T05:06:47;41.53;;;22.73;;
27804;SDS011;15183;51.350;11.102;2024-03-08T05:09:14;41.20;;;23.33;;
27804;SDS011;15183;51.350;11.102;2024-03-08T05:11:44;37.95;;;22.35;;
27804;SDS011;15183;51.350;11.102;2024-03-08T05:14:15;47.47;;;24.92;;
27804;SDS011;15183;51.350;11.102;2024-03-08T05:16:48;40.70;;;23.95;;
27804;SDS011;15183;51.350;11.102;2024-03-08T05:19:15;41.70;;;23.83;;
27804;SDS011;15183;51.350;11.102;2024-03-08T05:21:43;57.03;;;29.15;;
27804;SDS011;15183;51.350;11.102;2024-03-08T05:24:13;46.20;;;26.85;;
27804;SDS011;15183;51.350;11.102;2024-03-08T05:26:41;51.80;;;26.80;;
27804;SDS011;15183;51.350;11.102;2024-03-08T05:29:08;48.25;;;26.40;;
27804;SDS011;15183;51.350;11.102;2024-03-08T05:31:38;47.60;;;26.42;;
27804;SDS011;15183;51.350;11.102;2024-03-08T05:34:18;48.92;;;27.77;;
27804;SDS011;15183;51.350;11.102;2024-03-08T05:36:47;57.55;;;30.58;;
27804;SDS011;15183;51.350;11.102;2024-03-08T05:39:16;50.40;;;28.65;;
27804;SDS011;15183;51.350;11.102;2024-03-08T05:41:43;52.30;;;28.88;;
27804;SDS011;15183;51.350;11.102;2024-03-08T05:44:12;52.75;;;28.63;;
27804;SDS011;15183;51.350;11.102;2024-03-08T05:46:39;52.55;;;29.52;;
27804;SDS011;15183;51.350;11.102;2024-03-08T05:49:06;56.03;;;30.63;;
27804;SDS011;15183;51.350;11.102;2024-03-08T05:51:36;55.63;;;30.33;;
27804;SDS011;15183;51.350;11.102;2024-03-08T05:54:07;57.10;;;29.77;;
27804;SDS011;15183;51.350;11.102;2024-03-08T05:56:41;61.28;;;32.22;;
27804;SDS011;15183;51.350;11.102;2024-03-08T05:59:09;64.63;;;32.35;;
27804;SDS011;15183;51.350;11.102;2024-03-08T06:01:37;67.88;;;35.03;;
27804;SDS011;15183;51.350;11.102;2024-03-08T06:04:03;97.78;;;43.70;;
27804;SDS011;15183;51.350;11.102;2024-03-08T06:06:30;101.95;;;49.13;;
27804;SDS011;15183;51.350;11.102;2024-03-08T06:08:56;87.38;;;43.63;;
27804;SDS011;15183;51.350;11.102;2024-03-08T06:11:24;70.53;;;38.45;;
27804;SDS011;15183;51.350;11.102;2024-03-08T06:16:51;58.80;;;32.20;;
27804;SDS011;15183;51.350;11.102;2024-03-08T06:19:17;56.75;;;30.60;;
27804;SDS011;15183;51.350;11.102;2024-03-08T06:24:53;53.20;;;29.33;;
27804;SDS011;15183;51.350;11.102;2024-03-08T06:27:20;51.80;;;26.95;;
27804;SDS011;15183;51.350;11.102;2024-03-08T06:29:48;45.28;;;27.27;;
27804;SDS011;15183;51.350;11.102;2024-03-08T06:32:15;43.67;;;24.67;;
27804;SDS011;15183;51.350;11.102;2024-03-08T06:34:42;45.58;;;26.35;;
27804;SDS011;15183;51.350;11.102;2024-03-08T06:37:09;43.97;;;25.83;;
27804;SDS011;15183;51.350;11.102;2024-03-08T06:39:35;43.80;;;24.70;;
27804;SDS011;15183;51.350;11.102;2024-03-08T06:42:02;40.85;;;24.63;;
27804;SDS011;15183;51.350;11.102;2024-03-08T06:44:30;44.92;;;26.50;;
27804;SDS011;15183;51.350;11.102;2024-03-08T06:46:58;49.42;;;28.40;;
27804;SDS011;15183;51.350;11.102;2024-03-08T06:49:26;49.40;;;28.90;;
27804;SDS011;15183;51.350;11.102;2024-03-08T06:51:53;52.53;;;28.83;;
27804;SDS011;15183;51.350;11.102;2024-03-08T06:54:19;52.78;;;29.40;;
27804;SDS011;15183;51.350;11.102;2024-03-08T06:56:50;49.22;;;26.30;;
27804;SDS011;15183;51.350;11.102;2024-03-08T06:59:16;45.30;;;26.25;;
27804;SDS011;15183;51.350;11.102;2024-03-08T07:01:43;47.08;;;27.92;;
27804;SDS011;15183;51.350;11.102;2024-03-08T07:04:10;41.42;;;25.88;;
27804;SDS011;15183;51.350;11.102;2024-03-08T07:06:37;42.80;;;26.08;;
27804;SDS011;15183;51.350;11.102;2024-03-08T07:09:04;46.42;;;26.85;;
27804;SDS011;15183;51.350;11.102;2024-03-08T07:11:31;45.58;;;27.33;;
27804;SDS011;15183;51.350;11.102;2024-03-08T07:14:00;46.65;;;28.45;;
27804;SDS011;15183;51.350;11.102;2024-03-08T07:16:31;43.15;;;26.98;;
27804;SDS011;15183;51.350;11.102;2024-03-08T07:18:57;46.83;;;28.50;;
27804;SDS011;15183;51.350;11.102;2024-03-08T07:21:24;47.15;;;27.83;;
27804;SDS011;15183;51.350;11.102;2024-03-08T07:23:51;45.75;;;26.73;;
27804;SDS011;15183;51.350;11.102;2024-03-08T07:26:26;47.95;;;27.80;;
27804;SDS011;15183;51.350;11.102;2024-03-08T07:28:56;44.83;;;26.27;;
27804;SDS011;15183;51.350;11.102;2024-03-08T07:31:23;41.75;;;25.13;;
27804;SDS011;15183;51.350;11.102;2024-03-08T07:34:10;41.83;;;25.48;;
27804;SDS011;15183;51.350;11.102;2024-03-08T07:36:37;44.42;;;25.08;;
27804;SDS011;15183;51.350;11.102;2024-03-08T07:39:03;45.58;;;26.90;;
27804;SDS011;15183;51.350;11.102;2024-03-08T07:41:37;41.97;;;27.08;;
27804;SDS011;15183;51.350;11.102;2024-03-08T07:44:06;39.65;;;25.58;;
27804;SDS011;15183;51.350;11.102;2024-03-08T07:46:33;41.17;;;25.52;;
27804;SDS011;15183;51.350;11.102;2024-03-08T07:49:02;40.60;;;24.40;;
27804;SDS011;15183;51.350;11.102;2024-03-08T07:51:29;42.70;;;25.80;;
27804;SDS011;15183;51.350;11.102;2024-03-08T07:53:56;41.28;;;25.33;;
27804;SDS011;15183;51.350;11.102;2024-03-08T07:56:22;46.45;;;26.73;;
27804;SDS011;15183;51.350;11.102;2024-03-08T07:58:50;44.85;;;26.85;;
27804;SDS011;15183;51.350;11.102;2024-03-08T08:01:18;49.28;;;26.77;;
27804;SDS011;15183;51.350;11.102;2024-03-08T08:03:45;48.38;;;27.40;;
27804;SDS011;15183;51.350;11.102;2024-03-08T08:06:17;45.42;;;26.25;;
27804;SDS011;15183;51.350;11.102;2024-03-08T08:08:44;44.33;;;26.52;;
27804;SDS011;15183;51.350;11.102;2024-03-08T08:11:10;47.33;;;27.35;;
27804;SDS011;15183;51.350;11.102;2024-03-08T08:13:37;45.63;;;26.90;;
27804;SDS011;15183;51.350;11.102;2024-03-08T08:16:03;46.35;;;28.10;;
27804;SDS011;15183;51.350;11.102;2024-03-08T08:18:32;51.38;;;29.05;;
27804;SDS011;15183;51.350;11.102;2024-03-08T08:21:02;47.53;;;28.65;;
27804;SDS011;15183;51.350;11.102;2024-03-08T08:23:30;45.28;;;27.30;;
27804;SDS011;15183;51.350;11.102;2024-03-08T08:25:56;53.78;;;32.53;;
27804;SDS011;15183;51.350;11.102;2024-03-08T08:28:23;59.40;;;35.00;;
27804;SDS011;15183;51.350;11.102;2024-03-08T08:30:50;49.10;;;29.00;;
27804;SDS011;15183;51.350;11.102;2024-03-08T08:33:16;50.20;;;29.10;;
27804;SDS011;15183;51.350;11.102;2024-03-08T08:35:43;56.67;;;31.30;;
27804;SDS011;15183;51.350;11.102;2024-03-08T08:38:09;51.08;;;30.58;;
27804;SDS011;15183;51.350;11.102;2024-03-08T08:40:36;44.47;;;26.60;;
27804;SDS011;15183;51.350;11.102;2024-03-08T08:43:02;45.35;;;26.70;;
27804;SDS011;15183;51.350;11.102;2024-03-08T08:45:30;55.92;;;31.90;;
27804;SDS011;15183;51.350;11.102;2024-03-08T08:47:57;59.90;;;34.17;;
27804;SDS011;15183;51.350;11.102;2024-03-08T08:50:25;49.40;;;28.75;;
27804;SDS011;15183;51.350;11.102;2024-03-08T08:52:54;61.53;;;34.97;;
27804;SDS011;15183;51.350;11.102;2024-03-08T08:55:21;50.15;;;29.65;;
27804;SDS011;15183;51.350;11.102;2024-03-08T08:57:51;49.17;;;29.33;;
27804;SDS011;15183;51.350;11.102;2024-03-08T09:00:19;60.45;;;33.97;;
27804;SDS011;15183;51.350;11.102;2024-03-08T09:02:47;55.33;;;30.40;;
27804;SDS011;15183;51.350;11.102;2024-03-08T09:05:16;55.60;;;32.53;;
27804;SDS011;15183;51.350;11.102;2024-03-08T09:07:43;54.50;;;31.88;;
27804;SDS011;15183;51.350;11.102;2024-03-08T09:10:10;49.25;;;29.90;;
27804;SDS011;15183;51.350;11.102;2024-03-08T09:12:41;50.03;;;29.00;;
27804;SDS011;15183;51.350;11.102;2024-03-08T09:15:07;66.85;;;40.05;;
27804;SDS011;15183;51.350;11.102;2024-03-08T09:17:36;70.72;;;37.15;;
27804;SDS011;15183;51.350;11.102;2024-03-08T09:20:07;65.40;;;37.53;;
27804;SDS011;15183;51.350;11.102;2024-03-08T09:22:43;62.78;;;34.92;;
27804;SDS011;15183;51.350;11.102;2024-03-08T09:25:11;58.90;;;35.00;;
27804;SDS011;15183;51.350;11.102;2024-03-08T09:27:37;47.25;;;29.75;;
27804;SDS011;15183;51.350;11.102;2024-03-08T09:30:05;52.90;;;30.98;;
27804;SDS011;15183;51.350;11.102;2024-03-08T09:32:32;62.28;;;33.33;;
27804;SDS011;15183;51.350;11.102;2024-03-08T09:34:59;54.83;;;32.13;;
27804;SDS011;15183;51.350;11.102;2024-03-08T09:37:26;58.03;;;32.88;;
27804;SDS011;15183;51.350;11.102;2024-03-08T09:39:53;50.60;;;30.13;;
27804;SDS011;15183;51.350;11.102;2024-03-08T09:42:20;49.58;;;30.70;;
27804;SDS011;15183;51.350;11.102;2024-03-08T09:44:47;50.90;;;29.50;;
27804;SDS011;15183;51.350;11.102;2024-03-08T09:47:14;52.63;;;32.45;;
27804;SDS011;15183;51.350;11.102;2024-03-08T09:49:41;50.80;;;30.95;;
27804;SDS011;15183;51.350;11.102;2024-03-08T09:52:09;53.38;;;31.55;;
27804;SDS011;15183;51.350;11.102;2024-03-08T09:54:38;47.70;;;29.52;;
27804;SDS011;15183;51.350;11.102;2024-03-08T09:57:05;49.70;;;31.13;;
27804;SDS011;15183;51.350;11.102;2024-03-08T09:59:34;49.78;;;30.50;;
27804;SDS011;15183;51.350;11.102;2024-03-08T10:02:03;47.95;;;29.33;;
27804;SDS011;15183;51.350;11.102;2024-03-08T10:04:31;48.10;;;28.05;;
27804;SDS011;15183;51.350;11.102;2024-03-08T10:06:58;46.85;;;27.70;;
27804;SDS011;15183;51.350;11.102;2024-03-08T10:09:26;50.03;;;29.50;;
27804;SDS011;15183;51.350;11.102;2024-03-08T10:11:56;54.03;;;27.73;;
27804;SDS011;15183;51.350;11.102;2024-03-08T10:14:25;47.83;;;28.40;;
27804;SDS011;15183;51.350;11.102;2024-03-08T10:16:53;48.40;;;29.15;;
27804;SDS011;15183;51.350;11.102;2024-03-08T10:19:20;49.42;;;29.90;;
27804;SDS011;15183;51.350;11.102;2024-03-08T10:21:50;49.30;;;28.35;;
27804;SDS011;15183;51.350;11.102;2024-03-08T10:24:19;47.70;;;28.65;;
27804;SDS011;15183;51.350;11.102;2024-03-08T10:26:46;49.38;;;29.63;;
27804;SDS011;15183;51.350;11.102;2024-03-08T10:29:13;48.95;;;29.05;;
27804;SDS011;15183;51.350;11.102;2024-03-08T10:31:44;47.47;;;29.00;;
27804;SDS011;15183;51.350;11.102;2024-03-08T10:34:10;50.20;;;30.15;;
27804;SDS011;15183;51.350;11.102;2024-03-08T10:36:37;50.25;;;30.30;;
27804;SDS011;15183;51.350;11.102;2024-03-08T10:39:18;51.20;;;28.90;;
27804;SDS011;15183;51.350;11.102;2024-03-08T10:41:57;50.63;;;30.58;;
27804;SDS011;15183;51.350;11.102;2024-03-08T10:49:32;52.78;;;31.67;;
27804;SDS011;15183;51.350;11.102;2024-03-08T10:52:13;50.97;;;29.73;;
27804;SDS011;15183;51.350;11.102;2024-03-08T10:54:42;47.10;;;29.55;;
27804;SDS011;15183;51.350;11.102;2024-03-08T10:57:12;49.55;;;29.13;;
27804;SDS011;15183;51.350;11.102;2024-03-08T10:59:40;45.70;;;28.25;;
27804;SDS011;15183;51.350;11.102;2024-03-08T11:02:11;49.53;;;29.98;;
27804;SDS011;15183;51.350;11.102;2024-03-08T11:04:38;47.72;;;28.65;;
27804;SDS011;15183;51.350;11.102;2024-03-08T11:07:04;48.10;;;29.63;;
27804;SDS011;15183;51.350;11.102;2024-03-08T11:09:32;52.10;;;30.15;;
27804;SDS011;15183;51.350;11.102;2024-03-08T11:14:56;53.20;;;29.88;;
27804;SDS011;15183;51.350;11.102;2024-03-08T11:17:39;49.83;;;28.60;;
27804;SDS011;15183;51.350;11.102;2024-03-08T11:20:12;52.08;;;29.77;;
27804;SDS011;15183;51.350;11.102;2024-03-08T11:22:53;44.58;;;26.60;;
27804;SDS011;15183;51.350;11.102;2024-03-08T11:25:31;46.60;;;27.30;;
27804;SDS011;15183;51.350;11.102;2024-03-08T11:33:28;43.55;;;26.90;;
27804;SDS011;15183;51.350;11.102;2024-03-08T11:38:50;44.60;;;28.55;;
27804;SDS011;15183;51.350;11.102;2024-03-08T11:41:19;43.03;;;26.40;;
27804;SDS011;15183;51.350;11.102;2024-03-08T11:43:47;47.50;;;29.25;;
27804;SDS011;15183;51.350;11.102;2024-03-08T11:46:15;44.45;;;27.10;;
27804;SDS011;15183;51.350;11.102;2024-03-08T11:48:43;45.55;;;26.65;;
27804;SDS011;15183;51.350;11.102;2024-03-08T11:51:13;80.25;;;40.67;;
27804;SDS011;15183;51.350;11.102;2024-03-08T11:53:40;42.50;;;27.73;;
27804;SDS011;15183;51.350;11.102;2024-03-08T11:56:10;50.03;;;30.65;;
27804;SDS011;15183;51.350;11.102;2024-03-08T11:58:40;47.83;;;27.55;;
27804;SDS011;15183;51.350;11.102;2024-03-08T12:01:07;49.38;;;28.45;;
27804;SDS011;15183;51.350;11.102;2024-03-08T12:03:41;46.42;;;27.63;;
27804;SDS011;15183;51.350;11.102;2024-03-08T12:06:10;48.17;;;29.60;;
27804;SDS011;15183;51.350;11.102;2024-03-08T12:08:39;57.70;;;30.42;;
27804;SDS011;15183;51.350;11.102;2024-03-08T12:11:06;41.58;;;26.17;;
27804;SDS011;15183;51.350;11.102;2024-03-08T12:13:34;39.30;;;25.00;;
27804;SDS011;15183;51.350;11.102;2024-03-08T12:16:03;44.95;;;27.88;;
27804;SDS011;15183;51.350;11.102;2024-03-08T12:18:34;43.00;;;27.70;;
27804;SDS011;15183;51.350;11.102;2024-03-08T12:21:04;47.10;;;28.33;;
27804;SDS011;15183;51.350;11.102;2024-03-08T12:23:46;45.60;;;27.00;;
27804;SDS011;15183;51.350;11.102;2024-03-08T12:26:17;42.55;;;27.00;;
27804;SDS011;15183;51.350;11.102;2024-03-08T12:28:51;50.77;;;29.27;;
27804;SDS011;15183;51.350;11.102;2024-03-08T12:31:19;43.42;;;26.52;;
27804;SDS011;15183;51.350;11.102;2024-03-08T12:33:49;38.10;;;25.83;;
27804;SDS011;15183;51.350;11.102;2024-03-08T12:36:18;43.65;;;26.27;;
27804;SDS011;15183;51.350;11.102;2024-03-08T12:38:46;46.60;;;28.63;;
27804;SDS011;15183;51.350;11.102;2024-03-08T12:41:16;38.83;;;26.15;;
27804;SDS011;15183;51.350;11.102;2024-03-08T12:43:47;44.28;;;26.73;;
27804;SDS011;15183;51.350;11.102;2024-03-08T12:46:14;47.50;;;28.50;;
27804;SDS011;15183;51.350;11.102;2024-03-08T12:48:42;41.45;;;26.77;;
27804;SDS011;15183;51.350;11.102;2024-03-08T12:51:15;41.90;;;24.85;;
27804;SDS011;15183;51.350;11.102;2024-03-08T12:53:44;40.03;;;25.08;;
27804;SDS011;15183;51.350;11.102;2024-03-08T12:56:11;45.15;;;24.67;;
27804;SDS011;15183;51.350;11.102;2024-03-08T12:59:02;45.80;;;26.75;;
27804;SDS011;15183;51.350;11.102;2024-03-08T13:01:30;49.70;;;26.23;;
27804;SDS011;15183;51.350;11.102;2024-03-08T13:03:58;43.47;;;27.15;;
27804;SDS011;15183;51.350;11.102;2024-03-08T13:06:28;42.22;;;25.55;;
27804;SDS011;15183;51.350;11.102;2024-03-08T13:08:56;41.17;;;25.13;;
27804;SDS011;15183;51.350;11.102;2024-03-08T13:11:24;39.00;;;25.38;;
27804;SDS011;15183;51.350;11.102;2024-03-08T13:13:51;39.42;;;25.65;;
27804;SDS011;15183;51.350;11.102;2024-03-08T13:16:20;43.75;;;27.08;;
27804;SDS011;15183;51.350;11.102;2024-03-08T13:18:47;41.78;;;25.42;;
27804;SDS011;15183;51.350;11.102;2024-03-08T13:21:16;42.28;;;25.58;;
27804;SDS011;15183;51.350;11.102;2024-03-08T13:23:45;39.03;;;24.20;;
27804;SDS011;15183;51.350;11.102;2024-03-08T13:26:15;39.80;;;25.25;;
27804;SDS011;15183;51.350;11.102;2024-03-08T13:28:45;43.47;;;26.08;;
27804;SDS011;15183;51.350;11.102;2024-03-08T13:31:14;39.72;;;24.95;;
27804;SDS011;15183;51.350;11.102;2024-03-08T13:33:41;38.45;;;24.88;;
27804;SDS011;15183;51.350;11.102;2024-03-08T13:36:10;41.47;;;26.15;;
27804;SDS011;15183;51.350;11.102;2024-03-08T13:38:47;44.78;;;26.35;;
27804;SDS011;15183;51.350;11.102;2024-03-08T13:41:15;45.28;;;25.92;;
27804;SDS011;15183;51.350;11.102;2024-03-08T13:43:43;40.00;;;25.40;;
27804;SDS011;15183;51.350;11.102;2024-03-08T13:46:11;40.40;;;23.30;;
27804;SDS011;15183;51.350;11.102;2024-03-08T13:48:38;35.83;;;23.35;;
27804;SDS011;15183;51.350;11.102;2024-03-08T13:51:05;35.00;;;22.52;;
27804;SDS011;15183;51.350;11.102;2024-03-08T13:53:32;41.08;;;25.17;;
27804;SDS011;15183;51.350;11.102;2024-03-08T13:56:01;37.03;;;24.55;;
27804;SDS011;15183;51.350;11.102;2024-03-08T13:58:29;37.60;;;24.10;;
27804;SDS011;15183;51.350;11.102;2024-03-08T14:00:55;38.70;;;23.85;;
27804;SDS011;15183;51.350;11.102;2024-03-08T14:03:40;39.45;;;25.02;;
27804;SDS011;15183;51.350;11.102;2024-03-08T14:06:07;36.92;;;24.52;;
27804;SDS011;15183;51.350;11.102;2024-03-08T14:08:35;40.30;;;25.58;;
27804;SDS011;15183;51.350;11.102;2024-03-08T14:11:05;41.92;;;25.98;;
27804;SDS011;15183;51.350;11.102;2024-03-08T14:13:44;39.92;;;25.00;;
27804;SDS011;15183;51.350;11.102;2024-03-08T14:16:11;40.78;;;25.20;;
27804;SDS011;15183;51.350;11.102;2024-03-08T14:18:38;41.70;;;24.52;;
27804;SDS011;15183;51.350;11.102;2024-03-08T14:21:05;41.53;;;25.27;;
27804;SDS011;15183;51.350;11.102;2024-03-08T14:23:34;39.80;;;25.30;;
27804;SDS011;15183;51.350;11.102;2024-03-08T14:26:02;39.30;;;25.33;;
27804;SDS011;15183;51.350;11.102;2024-03-08T14:28:32;39.97;;;25.38;;
27804;SDS011;15183;51.350;11.102;2024-03-08T14:30:59;39.42;;;25.20;;
27804;SDS011;15183;51.350;11.102;2024-03-08T14:33:28;36.78;;;24.38;;
27804;SDS011;15183;51.350;11.102;2024-03-08T14:35:57;41.90;;;25.27;;
27804;SDS011;15183;51.350;11.102;2024-03-08T14:38:23;43.85;;;26.27;;